createdAt,value
2022-11-13T00:00:51.933Z,27.27
2022-11-13T00:03:18.767Z,25.87
2022-11-13T00:05:45.589Z,27.00
2022-11-13T00:08:12.441Z,24.33
2022-11-13T00:10:39.238Z,25.27
2022-11-13T00:13:06.025Z,27.07
2022-11-13T00:15:33.861Z,26.40
2022-11-13T00:18:02.519Z,26.83
2022-11-13T00:20:29.393Z,28.47
2022-11-13T00:22:56.265Z,24.63
2022-11-13T00:25:23.068Z,24.30
2022-11-13T00:27:49.890Z,24.87
2022-11-13T00:30:19.428Z,24.07
2022-11-13T00:32:46.393Z,23.90
2022-11-13T00:35:13.223Z,23.33
2022-11-13T00:37:40.060Z,22.93
2022-11-13T00:40:07.308Z,24.03
2022-11-13T00:42:34.131Z,24.47
2022-11-13T00:45:00.891Z,24.30
2022-11-13T00:47:27.719Z,24.20
2022-11-13T00:49:54.511Z,22.03
2022-11-13T00:52:21.265Z,24.00
2022-11-13T00:54:48.048Z,24.10
2022-11-13T00:57:14.875Z,22.90
2022-11-13T00:59:41.712Z,23.17
2022-11-13T01:02:10.115Z,23.90
2022-11-13T01:04:36.881Z,25.40
2022-11-13T01:07:03.704Z,24.00
2022-11-13T01:09:30.521Z,22.47
2022-11-13T01:11:57.285Z,24.50
2022-11-13T01:14:24.095Z,22.83
2022-11-13T01:16:50.873Z,25.50
2022-11-13T01:19:17.737Z,23.80
2022-11-13T01:21:44.543Z,24.30
2022-11-13T01:24:11.288Z,23.20
2022-11-13T01:26:38.069Z,22.30
2022-11-13T01:29:05.006Z,23.20
2022-11-13T01:31:31.796Z,24.13
2022-11-13T01:33:58.611Z,25.40
2022-11-13T01:36:27.007Z,24.07
2022-11-13T01:38:54.082Z,22.57
2022-11-13T01:41:31.613Z,22.90
2022-11-13T01:43:58.724Z,24.30
2022-11-13T01:46:36.306Z,23.03
2022-11-13T01:49:12.043Z,22.33
2022-11-13T01:51:49.937Z,23.40
2022-11-13T01:54:19.517Z,23.47
2022-11-13T01:56:46.335Z,24.70
2022-11-13T01:59:18.370Z,21.97
2022-11-13T02:01:45.266Z,21.10
2022-11-13T02:04:12.085Z,22.73
2022-11-13T02:06:49.989Z,21.53
2022-11-13T02:09:21.328Z,20.87
2022-11-13T02:11:48.116Z,20.47
2022-11-13T02:14:15.030Z,21.67
2022-11-13T02:16:42.338Z,22.07
2022-11-13T02:19:13.273Z,22.17
2022-11-13T02:22:16.948Z,23.30
2022-11-13T02:24:45.557Z,23.17
2022-11-13T02:27:33.449Z,23.37
2022-11-13T02:30:14.067Z,23.53
2022-11-13T02:32:50.369Z,23.47
2022-11-13T02:35:33.390Z,23.63
2022-11-13T02:38:02.004Z,23.10
2022-11-13T02:40:28.869Z,22.20
2022-11-13T02:42:55.747Z,20.43
2022-11-13T02:45:22.609Z,22.17
2022-11-13T02:47:49.859Z,21.90
2022-11-13T02:50:17.653Z,24.00
2022-11-13T02:52:44.526Z,21.97
2022-11-13T02:55:11.348Z,21.33
2022-11-13T02:57:38.209Z,22.20
2022-11-13T03:00:09.195Z,21.57
2022-11-13T03:02:39.405Z,22.30
2022-11-13T03:05:14.097Z,22.73
2022-11-13T03:07:41.641Z,22.00
2022-11-13T03:10:09.277Z,21.67
2022-11-13T03:12:36.124Z,22.63
2022-11-13T03:15:03.332Z,22.20
2022-11-13T03:17:33.580Z,21.73
2022-11-13T03:20:00.666Z,21.57
2022-11-13T03:22:27.720Z,19.47
2022-11-13T03:24:54.550Z,19.83
2022-11-13T03:27:21.369Z,19.27
2022-11-13T03:29:48.444Z,18.60
2022-11-13T03:32:15.323Z,19.43
2022-11-13T03:34:42.257Z,20.87
2022-11-13T03:37:09.073Z,22.37
2022-11-13T03:39:35.880Z,22.70
2022-11-13T03:42:02.634Z,21.87
2022-11-13T03:44:29.413Z,22.23
2022-11-13T03:46:56.250Z,22.60
2022-11-13T03:49:23.044Z,21.83
2022-11-13T03:51:49.846Z,20.43
2022-11-13T03:54:16.713Z,21.60
2022-11-13T03:56:43.514Z,21.90
2022-11-13T03:59:10.380Z,22.60
2022-11-13T04:01:37.164Z,20.63
2022-11-13T04:04:04.059Z,22.17
2022-11-13T04:06:30.935Z,19.37
2022-11-13T04:08:57.724Z,20.50
2022-11-13T04:11:24.489Z,21.23
2022-11-13T04:13:51.277Z,21.37
2022-11-13T04:16:18.048Z,21.97
2022-11-13T04:18:44.853Z,21.80
2022-11-13T04:21:12.651Z,21.47
2022-11-13T04:23:39.411Z,20.17
2022-11-13T04:26:06.266Z,20.63
2022-11-13T04:28:33.094Z,19.80
2022-11-13T04:30:59.882Z,21.47
2022-11-13T04:33:26.654Z,20.10
2022-11-13T04:35:53.495Z,20.07
2022-11-13T04:38:20.286Z,20.33
2022-11-13T04:40:50.363Z,19.60
2022-11-13T04:43:17.185Z,19.97
2022-11-13T04:45:43.941Z,20.27
2022-11-13T04:48:10.748Z,21.00
2022-11-13T04:50:37.537Z,18.90
2022-11-13T04:53:04.370Z,20.40
2022-11-13T04:55:31.133Z,21.20
2022-11-13T04:57:57.986Z,22.27
2022-11-13T05:00:24.942Z,20.50
2022-11-13T05:02:51.756Z,20.80
2022-11-13T05:05:18.519Z,21.33
2022-11-13T05:07:45.314Z,20.60
2022-11-13T05:10:12.341Z,21.90
2022-11-13T05:12:39.153Z,22.70
2022-11-13T05:15:06.682Z,20.77
2022-11-13T05:17:33.581Z,20.13
2022-11-13T05:20:00.369Z,20.33
2022-11-13T05:22:27.157Z,20.30
2022-11-13T05:24:53.969Z,20.10
2022-11-13T05:27:20.807Z,19.67
2022-11-13T05:29:47.574Z,20.10
2022-11-13T05:32:14.429Z,18.33
2022-11-13T05:34:42.249Z,20.00
2022-11-13T05:37:09.006Z,20.53
2022-11-13T05:39:35.843Z,20.40
2022-11-13T05:42:02.681Z,19.53
2022-11-13T05:44:29.497Z,21.53
2022-11-13T05:46:56.301Z,21.57
2022-11-13T05:49:23.065Z,22.10
2022-11-13T05:51:49.846Z,20.20
2022-11-13T05:54:16.640Z,19.70
2022-11-13T05:56:44.721Z,20.83
2022-11-13T05:59:12.559Z,19.17
2022-11-13T06:01:40.168Z,19.47
2022-11-13T06:04:07.801Z,22.33
2022-11-13T06:06:34.825Z,21.83
2022-11-13T06:09:03.264Z,23.53
2022-11-13T06:11:30.352Z,21.90
2022-11-13T06:13:57.678Z,21.63
2022-11-13T06:16:29.064Z,20.10
2022-11-13T06:19:03.220Z,20.77
2022-11-13T06:21:31.076Z,20.67
2022-11-13T06:23:59.534Z,21.60
2022-11-13T06:26:28.402Z,21.47
2022-11-13T06:28:55.295Z,24.30
2022-11-13T06:31:26.766Z,21.60
2022-11-13T06:33:53.750Z,21.23
2022-11-13T06:36:23.359Z,22.50
2022-11-13T06:38:50.355Z,20.93
2022-11-13T06:41:20.585Z,20.67
2022-11-13T06:43:47.800Z,21.30
2022-11-13T06:46:19.162Z,20.97
2022-11-13T06:48:46.121Z,19.77
2022-11-13T06:51:18.513Z,20.63
2022-11-13T06:53:45.348Z,17.50
2022-11-13T06:56:12.348Z,18.93
2022-11-13T06:58:39.200Z,19.47
2022-11-13T07:01:17.430Z,17.83
2022-11-13T07:03:44.283Z,19.53
2022-11-13T07:06:15.595Z,20.47
2022-11-13T07:08:42.786Z,20.60
2022-11-13T07:11:15.393Z,20.97
2022-11-13T07:13:42.393Z,21.90
2022-11-13T07:16:17.086Z,20.97
2022-11-13T07:18:53.764Z,21.17
2022-11-13T07:21:20.814Z,21.60
2022-11-13T07:23:48.706Z,19.80
2022-11-13T07:26:15.552Z,23.20
2022-11-13T07:28:42.376Z,23.57
2022-11-13T07:31:09.677Z,23.10
2022-11-13T07:33:38.512Z,26.80
2022-11-13T07:36:05.882Z,23.63
2022-11-13T07:38:32.643Z,22.87
2022-11-13T07:40:59.763Z,23.83
2022-11-13T07:43:26.746Z,27.70
2022-11-13T07:45:56.564Z,23.80
2022-11-13T07:48:23.373Z,25.67
2022-11-13T07:50:50.458Z,28.53
2022-11-13T07:53:17.437Z,30.17
2022-11-13T07:55:44.259Z,28.03
2022-11-13T07:58:11.145Z,25.03
2022-11-13T08:00:38.081Z,25.03
2022-11-13T08:03:11.958Z,25.20
2022-11-13T08:05:39.805Z,24.47
2022-11-13T08:08:06.722Z,23.83
2022-11-13T08:10:33.641Z,22.40
2022-11-13T08:13:08.757Z,24.37
2022-11-13T08:15:35.548Z,22.03
2022-11-13T08:18:03.471Z,23.00
2022-11-13T08:20:30.620Z,21.83
2022-11-13T08:22:58.377Z,26.10
2022-11-13T08:25:27.940Z,23.57
2022-11-13T08:27:55.401Z,23.63
2022-11-13T08:30:22.545Z,23.50
2022-11-13T08:32:49.730Z,23.63
2022-11-13T08:35:19.487Z,25.77
2022-11-13T08:37:47.386Z,23.00
2022-11-13T08:40:14.411Z,29.17
2022-11-13T08:42:41.196Z,30.03
2022-11-13T08:45:08.526Z,28.87
2022-11-13T08:47:35.655Z,30.27
2022-11-13T08:50:02.525Z,27.10
2022-11-13T08:52:29.325Z,29.50
2022-11-13T08:54:56.198Z,30.33
2022-11-13T08:57:24.023Z,31.07
2022-11-13T08:59:50.873Z,32.00
2022-11-13T09:02:17.704Z,33.47
2022-11-13T09:04:44.495Z,31.77
2022-11-13T09:07:11.727Z,33.73
2022-11-13T09:09:38.633Z,34.57
2022-11-13T09:12:05.648Z,32.50
2022-11-13T09:14:32.481Z,34.13
2022-11-13T09:16:59.323Z,33.33
2022-11-13T09:19:26.329Z,32.77
2022-11-13T09:21:53.292Z,32.73
2022-11-13T09:24:20.162Z,31.97
2022-11-13T09:26:46.968Z,31.20
2022-11-13T09:29:13.785Z,30.93
2022-11-13T09:31:41.380Z,30.27
2022-11-13T09:34:08.627Z,31.83
2022-11-13T09:36:35.705Z,32.27
2022-11-13T09:39:03.085Z,32.53
2022-11-13T09:41:31.866Z,33.17
2022-11-13T09:44:09.908Z,33.20
2022-11-13T09:46:42.473Z,33.87
2022-11-13T09:49:27.560Z,31.40
2022-11-13T09:51:55.778Z,32.00
2022-11-13T09:54:22.715Z,33.00
2022-11-13T09:57:06.500Z,31.97
2022-11-13T09:59:42.568Z,33.57
2022-11-13T10:02:24.624Z,31.73
2022-11-13T10:05:11.076Z,31.20
2022-11-13T10:07:50.426Z,32.47
2022-11-13T10:10:55.947Z,31.87
2022-11-13T10:13:47.427Z,64.10
2022-11-13T10:16:35.944Z,82.43
2022-11-13T10:19:16.771Z,100.27
2022-11-13T10:22:26.507Z,113.63
2022-11-13T10:24:50.393Z,115.43
2022-11-13T10:27:17.173Z,125.40
2022-11-13T10:29:48.799Z,125.30
2022-11-13T10:32:29.473Z,141.03
2022-11-13T10:35:05.488Z,116.73
2022-11-13T10:38:08.950Z,131.33
2022-11-13T10:40:37.970Z,137.33
2022-11-13T10:43:25.607Z,128.93
2022-11-13T10:45:57.071Z,134.77
2022-11-13T10:48:28.149Z,136.10
2022-11-13T10:50:56.990Z,127.50
2022-11-13T10:53:23.805Z,139.40
2022-11-13T10:55:56.649Z,144.80
2022-11-13T10:58:23.560Z,153.13
2022-11-13T11:00:50.587Z,158.00
2022-11-13T11:03:22.251Z,159.43
2022-11-13T11:05:57.882Z,160.10
2022-11-13T11:08:34.502Z,167.97
2022-11-13T11:11:34.039Z,169.57
2022-11-13T11:14:25.573Z,177.00
2022-11-13T11:16:53.070Z,170.63
2022-11-13T11:19:21.885Z,170.17
2022-11-13T11:21:49.985Z,169.93
2022-11-13T11:24:18.339Z,190.43
2022-11-13T11:26:49.962Z,226.30
2022-11-13T11:29:36.681Z,196.60
2022-11-13T11:32:25.408Z,169.20
2022-11-13T11:35:14.086Z,187.63
2022-11-13T11:37:50.480Z,212.10
2022-11-13T11:40:46.418Z,222.40
2022-11-13T11:43:29.727Z,237.70
2022-11-13T11:45:56.785Z,242.10
2022-11-13T11:48:27.999Z,274.57
2022-11-13T11:51:21.058Z,256.60
2022-11-13T11:53:59.680Z,231.87
2022-11-13T11:56:44.517Z,248.90
2022-11-13T11:59:17.190Z,252.70
2022-11-13T12:02:06.922Z,233.87
2022-11-13T12:04:47.061Z,183.93
2022-11-13T12:07:14.068Z,216.63
2022-11-13T12:09:58.311Z,228.77
2022-11-13T12:12:44.722Z,211.17
2022-11-13T12:15:29.263Z,217.02
2022-11-13T12:18:05.460Z,202.18
2022-11-13T12:21:01.636Z,209.18
2022-11-13T12:23:42.767Z,184.07
2022-11-13T12:26:29.198Z,164.45
2022-11-13T12:29:02.102Z,136.68
2022-11-13T12:31:39.402Z,119.07
2022-11-13T12:34:30.527Z,115.72
2022-11-13T12:36:57.280Z,105.38
2022-11-13T12:39:30.124Z,92.50
2022-11-13T12:42:11.060Z,90.82
2022-11-13T12:45:07.418Z,70.85
2022-11-13T12:47:35.717Z,56.63
2022-11-13T12:50:19.766Z,42.55
2022-11-13T12:52:57.337Z,45.13
2022-11-13T12:55:31.442Z,45.80
2022-11-13T12:58:31.761Z,40.92
2022-11-13T13:01:01.499Z,34.80
2022-11-13T13:04:02.105Z,34.05
2022-11-13T13:06:35.085Z,32.80
2022-11-13T13:09:16.881Z,31.73
2022-11-13T13:11:49.659Z,30.55
2022-11-13T13:14:36.037Z,32.90
2022-11-13T13:17:15.912Z,33.15
2022-11-13T13:19:42.754Z,30.67
2022-11-13T13:22:11.025Z,32.42
2022-11-13T13:24:38.554Z,33.60
2022-11-13T13:27:29.589Z,29.00
2022-11-13T13:29:57.517Z,26.48
2022-11-13T13:32:58.176Z,26.75
2022-11-13T13:35:30.038Z,24.75
2022-11-13T13:38:05.815Z,23.23
2022-11-13T13:40:41.157Z,23.67
2022-11-13T13:43:29.192Z,24.50
2022-11-13T13:46:15.746Z,23.83
2022-11-13T13:48:43.840Z,23.88
2022-11-13T13:51:27.616Z,23.60
2022-11-13T13:53:59.409Z,24.30
2022-11-13T13:56:26.198Z,24.95
2022-11-13T13:58:53.109Z,27.08
2022-11-13T14:01:33.580Z,28.30
2022-11-13T14:04:20.619Z,25.67
2022-11-13T14:06:50.917Z,26.90
2022-11-13T14:09:25.709Z,27.90
2022-11-13T14:12:09.064Z,25.67
2022-11-13T14:14:39.019Z,27.27
2022-11-13T14:17:05.937Z,32.60
2022-11-13T14:19:32.701Z,31.05
2022-11-13T14:22:00.833Z,31.80
2022-11-13T14:24:51.225Z,30.60
2022-11-13T14:27:23.853Z,30.65
2022-11-13T14:29:58.686Z,30.20
2022-11-13T14:32:29.681Z,30.13
2022-11-13T14:35:02.120Z,29.60
2022-11-13T14:37:38.559Z,27.90
2022-11-13T14:40:24.918Z,28.85
2022-11-13T14:42:59.750Z,29.48
2022-11-13T14:45:28.255Z,28.17
2022-11-13T14:47:58.015Z,27.73
2022-11-13T14:50:33.573Z,27.77
2022-11-13T14:53:04.538Z,28.52
2022-11-13T14:55:51.746Z,28.13
2022-11-13T14:58:34.727Z,29.58
2022-11-13T15:01:22.429Z,30.08
2022-11-13T15:03:50.070Z,29.60
2022-11-13T15:06:21.549Z,28.92
2022-11-13T15:08:48.943Z,29.77
2022-11-13T15:11:17.290Z,28.88
2022-11-13T15:13:44.222Z,30.70
2022-11-13T15:16:25.013Z,28.85
2022-11-13T15:19:01.133Z,28.40
2022-11-13T15:21:28.219Z,32.17
2022-11-13T15:23:56.414Z,28.85
2022-11-13T15:26:25.604Z,30.15
2022-11-13T15:28:52.490Z,29.52
2022-11-13T15:31:29.421Z,29.80
2022-11-13T15:33:56.316Z,29.20
2022-11-13T15:36:23.246Z,29.40
2022-11-13T15:38:50.011Z,29.43
2022-11-13T15:41:19.654Z,29.77
2022-11-13T15:43:50.815Z,29.00
2022-11-13T15:46:20.299Z,29.20
2022-11-13T15:48:47.593Z,28.33
2022-11-13T15:51:35.773Z,28.80
2022-11-13T15:54:22.211Z,27.77
2022-11-13T15:56:49.067Z,29.77
2022-11-13T15:59:16.660Z,28.60
2022-11-13T16:01:43.715Z,30.50
2022-11-13T16:04:13.088Z,30.23
2022-11-13T16:06:39.945Z,28.57
2022-11-13T16:09:06.805Z,29.67
2022-11-13T16:11:34.267Z,31.57
2022-11-13T16:14:01.090Z,30.23
2022-11-13T16:16:36.075Z,30.77
2022-11-13T16:19:04.109Z,29.87
2022-11-13T16:21:30.998Z,30.57
2022-11-13T16:23:57.846Z,30.17
2022-11-13T16:26:25.638Z,30.23
2022-11-13T16:29:13.734Z,30.13
2022-11-13T16:31:41.637Z,30.07
2022-11-13T16:34:08.493Z,26.70
2022-11-13T16:36:35.436Z,27.93
2022-11-13T16:39:03.816Z,27.43
2022-11-13T16:41:31.720Z,27.03
2022-11-13T16:43:58.606Z,27.30
2022-11-13T16:46:36.066Z,26.73
2022-11-13T16:49:02.842Z,27.90
2022-11-13T16:51:29.626Z,27.00
2022-11-13T16:53:56.420Z,29.13
2022-11-13T16:56:29.169Z,27.30
2022-11-13T16:58:56.615Z,29.20
2022-11-13T17:01:23.479Z,28.80
2022-11-13T17:03:50.448Z,29.50
2022-11-13T17:06:27.781Z,31.23
2022-11-13T17:08:56.317Z,38.73
2022-11-13T17:11:24.042Z,44.53
2022-11-13T17:13:54.874Z,48.60
2022-11-13T17:16:21.855Z,51.20
2022-11-13T17:18:49.709Z,52.17
2022-11-13T17:21:18.282Z,53.53
2022-11-13T17:23:45.178Z,37.87
2022-11-13T17:26:12.076Z,21.67
2022-11-13T17:28:38.979Z,20.80
2022-11-13T17:31:08.325Z,20.50
2022-11-13T17:33:35.424Z,21.73
2022-11-13T17:36:02.599Z,21.53
2022-11-13T17:38:29.588Z,22.63
2022-11-13T17:40:56.374Z,22.30
2022-11-13T17:43:23.473Z,20.60
2022-11-13T17:45:50.936Z,23.10
2022-11-13T17:48:18.594Z,21.53
2022-11-13T17:50:45.516Z,21.90
2022-11-13T17:53:12.333Z,22.67
2022-11-13T17:55:39.095Z,20.47
2022-11-13T17:58:05.858Z,22.37
2022-11-13T18:00:32.739Z,20.07
2022-11-13T18:02:59.642Z,23.10
2022-11-13T18:05:26.454Z,22.60
2022-11-13T18:07:53.295Z,22.27
2022-11-13T18:10:20.140Z,24.13
2022-11-13T18:12:47.340Z,24.63
2022-11-13T18:15:14.622Z,24.07
2022-11-13T18:17:41.422Z,22.33
2022-11-13T18:20:08.504Z,22.27
2022-11-13T18:22:35.361Z,23.57
2022-11-13T18:25:03.348Z,21.57
2022-11-13T18:27:30.204Z,24.00
2022-11-13T18:29:56.989Z,24.23
2022-11-13T18:32:23.809Z,24.83
2022-11-13T18:34:50.585Z,24.97
2022-11-13T18:37:17.381Z,24.40
2022-11-13T18:39:44.173Z,22.63
2022-11-13T18:42:10.942Z,23.10
2022-11-13T18:44:37.831Z,23.87
2022-11-13T18:47:04.715Z,23.10
2022-11-13T18:49:31.641Z,22.07
2022-11-13T18:51:58.393Z,24.23
2022-11-13T18:54:25.220Z,21.23
2022-11-13T18:56:51.971Z,23.37
2022-11-13T18:59:18.810Z,23.93
2022-11-13T19:01:45.852Z,21.90
2022-11-13T19:04:22.977Z,21.67
2022-11-13T19:06:50.536Z,22.43
2022-11-13T19:09:17.634Z,20.97
2022-11-13T19:11:44.728Z,23.67
2022-11-13T19:14:15.263Z,23.17
2022-11-13T19:16:42.041Z,23.30
2022-11-13T19:19:19.040Z,23.40
2022-11-13T19:21:46.100Z,22.33
2022-11-13T19:24:14.613Z,21.77
2022-11-13T19:26:42.213Z,21.53
2022-11-13T19:29:09.150Z,21.63
2022-11-13T19:31:35.941Z,21.97
2022-11-13T19:34:04.289Z,20.80
2022-11-13T19:36:31.726Z,20.40
2022-11-13T19:38:58.591Z,19.90
2022-11-13T19:41:26.022Z,20.33
2022-11-13T19:43:52.989Z,20.93
2022-11-13T19:46:20.005Z,19.77
2022-11-13T19:48:48.041Z,22.27
2022-11-13T19:51:16.840Z,23.60
2022-11-13T19:53:46.328Z,22.93
2022-11-13T19:56:20.846Z,23.70
2022-11-13T19:58:49.377Z,23.77
2022-11-13T20:01:20.780Z,23.80
2022-11-13T20:03:47.786Z,23.63
2022-11-13T20:06:15.764Z,24.07
2022-11-13T20:08:42.674Z,22.03
2022-11-13T20:11:10.841Z,22.27
2022-11-13T20:13:38.501Z,21.63
2022-11-13T20:16:06.602Z,23.10
2022-11-13T20:18:33.493Z,21.97
2022-11-13T20:21:00.534Z,21.83
2022-11-13T20:23:27.300Z,20.83
2022-11-13T20:25:59.336Z,22.27
2022-11-13T20:28:27.740Z,21.23
2022-11-13T20:31:16.466Z,21.03
2022-11-13T20:33:43.708Z,19.70
2022-11-13T20:36:10.553Z,19.93
2022-11-13T20:38:37.766Z,20.70
2022-11-13T20:41:05.684Z,20.63
2022-11-13T20:43:32.534Z,22.27
2022-11-13T20:46:06.081Z,23.13
2022-11-13T20:48:34.295Z,20.77
2022-11-13T20:51:10.926Z,20.80
2022-11-13T20:53:37.854Z,21.97
2022-11-13T20:56:05.850Z,21.80
2022-11-13T20:58:32.901Z,20.80
2022-11-13T21:01:06.550Z,20.13
2022-11-13T21:03:38.496Z,18.63
2022-11-13T21:06:07.143Z,19.63
2022-11-13T21:08:33.953Z,20.57
2022-11-13T21:11:01.432Z,19.63
2022-11-13T21:13:28.381Z,21.40
2022-11-13T21:15:55.178Z,20.90
2022-11-13T21:18:22.001Z,20.03
2022-11-13T21:20:48.889Z,18.97
2022-11-13T21:23:15.665Z,20.80
2022-11-13T21:25:42.476Z,22.07
2022-11-13T21:28:09.283Z,20.57
2022-11-13T21:30:36.134Z,20.67
2022-11-13T21:33:02.949Z,21.53
2022-11-13T21:35:30.210Z,22.33
2022-11-13T21:37:57.107Z,20.63
2022-11-13T21:40:23.887Z,20.77
2022-11-13T21:42:50.751Z,21.00
2022-11-13T21:45:17.646Z,20.10
2022-11-13T21:47:44.464Z,20.03
2022-11-13T21:50:11.305Z,20.90
2022-11-13T21:52:38.140Z,22.20
2022-11-13T21:55:05.268Z,20.93
2022-11-13T21:57:32.061Z,19.83
2022-11-13T21:59:58.871Z,19.67
2022-11-13T22:02:25.807Z,19.93
2022-11-13T22:04:52.733Z,20.63
2022-11-13T22:07:19.602Z,18.70
2022-11-13T22:09:46.420Z,19.90
2022-11-13T22:12:13.315Z,21.53
2022-11-13T22:14:40.179Z,20.37
2022-11-13T22:17:06.948Z,20.07
2022-11-13T22:19:36.401Z,20.33
2022-11-13T22:22:03.388Z,21.17
2022-11-13T22:24:30.826Z,19.53
2022-11-13T22:26:57.729Z,19.53
2022-11-13T22:29:24.545Z,18.63
2022-11-13T22:31:51.326Z,19.97
2022-11-13T22:34:18.337Z,19.53
2022-11-13T22:36:45.151Z,18.53
2022-11-13T22:39:12.245Z,20.00
2022-11-13T22:41:39.025Z,21.23
2022-11-13T22:44:11.677Z,20.67
2022-11-13T22:46:38.572Z,19.80
2022-11-13T22:49:05.876Z,20.00
2022-11-13T22:51:35.190Z,19.77
2022-11-13T22:54:03.799Z,19.77
2022-11-13T22:56:31.663Z,20.37
2022-11-13T22:59:00.179Z,19.37
2022-11-13T23:01:28.919Z,19.33
2022-11-13T23:03:56.631Z,19.70
2022-11-13T23:06:25.607Z,19.10
2022-11-13T23:08:52.595Z,19.43
2022-11-13T23:11:21.219Z,20.00
2022-11-13T23:13:53.308Z,19.93
2022-11-13T23:16:20.440Z,20.13
2022-11-13T23:18:47.427Z,19.20
2022-11-13T23:21:14.623Z,19.97
2022-11-13T23:23:41.460Z,19.87
2022-11-13T23:26:08.669Z,18.47
2022-11-13T23:28:35.937Z,20.57
2022-11-13T23:31:02.801Z,21.00
2022-11-13T23:33:29.642Z,19.20
2022-11-13T23:35:56.533Z,21.87
2022-11-13T23:38:23.308Z,19.67
2022-11-13T23:40:59.589Z,19.50
2022-11-13T23:43:41.633Z,18.90
2022-11-13T23:46:13.678Z,20.20
2022-11-13T23:48:40.521Z,19.53
2022-11-13T23:51:07.452Z,20.47
2022-11-13T23:53:34.394Z,20.30
2022-11-13T23:56:01.467Z,20.93
2022-11-13T23:58:28.642Z,20.13
